Pulau Tioman — 3EYO9 — position and weather

sailwx.info

Track history (hours):
 
Tides and Currents Weather Stations Pressure Air Temp Water Temp Dewpoint Dewpoint Depression Visibility Wind Speed Wind Dir Waves Ship Positions

Pulau Tioman

Last reported at 2014-Sep-26 08:33 UTC. Time now 2014-Oct-01 16:22 UTC.
Position N 35°05' E 139°38'.

Length 120 m; draft 6.1 m.

Type: Cargo ship. MMSI: 356613000.

Date/timePositionNaut miles runAvg speedWind from/ knotsBaromVisibWave heightAir tempDewpointWater temp
2014-Sep-26 08:33N 35°05' E 139°38'1312.8
2014-Sep-26 07:34N 35°16' E 139°46'1110.9
2014-Sep-26 06:33N 35°26' E 139°42'1 1.2
2014-Sep-26 05:32N 35°27' E 139°41'0 0.0
2014-Sep-26 04:32N 35°27' E 139°41'0 0.0
2014-Sep-26 03:32N 35°27' E 139°41'0 0.0
2014-Sep-26 02:32N 35°27' E 139°41'0 0.0
2014-Sep-26 01:32N 35°27' E 139°41'0 0.0
2014-Sep-26 00:32N 35°27' E 139°41'0 0.0
2014-Sep-25 23:32N 35°27' E 139°41'0 0.0
2014-Sep-25 22:32N 35°27' E 139°41'0 0.0
2014-Sep-25 21:33N 35°27' E 139°41'2 2.0
2014-Sep-25 20:33N 35°25' E 139°42'0 0.1
2014-Sep-25 19:33N 35°25' E 139°42'0 0.0
2014-Sep-25 18:33N 35°25' E 139°42'0 0.0
2014-Sep-25 17:33N 35°25' E 139°42'0 0.0
2014-Sep-25 16:33N 35°25' E 139°42'0 0.0
2014-Sep-25 15:33N 35°25' E 139°42'0 0.0
2014-Sep-25 14:33N 35°25' E 139°42'0 0.1
2014-Sep-25 13:33N 35°25' E 139°42'0 0.0
2014-Sep-25 12:30N 35°25' E 139°42'0 0.0
2014-Sep-25 11:33N 35°25' E 139°42'0 0.1
2014-Sep-25 10:33N 35°25' E 139°42'9 8.9
2014-Sep-25 09:33N 35°17' E 139°46'1511.8
2014-Sep-25 08:20N 35°02' E 139°42'24211.6
2014-Sep-24 11:33N 33°60' E 134°58'1312.6
2014-Sep-24 10:32N 34°12' E 134°59'1111.4
2014-Sep-24 09:33N 34°23' E 135°02'1313.5
2014-Sep-24 08:33N 34°33' E 135°13'9 9.2
2014-Sep-24 07:33N 34°42' E 135°15'0 0.1
2014-Sep-24 06:15N 34°42' E 135°15'0 0.0
2014-Sep-24 05:32N 34°42' E 135°15'0 0.0
2014-Sep-24 04:32N 34°42' E 135°15'0 0.0
2014-Sep-24 03:32N 34°42' E 135°15'0 0.0
2014-Sep-24 02:32N 34°42' E 135°15'0 0.0
2014-Sep-24 01:32N 34°42' E 135°15'0 0.0
2014-Sep-24 00:32N 34°42' E 135°15'0 0.0
2014-Sep-23 23:32N 34°42' E 135°15'0 0.0
2014-Sep-23 22:26N 34°42' E 135°15'0 0.0
2014-Sep-23 21:20N 34°42' E 135°15'0 0.0
2014-Sep-23 20:32N 34°42' E 135°15'0 0.0
2014-Sep-23 19:26N 34°42' E 135°15'0 0.0
2014-Sep-23 18:33N 34°42' E 135°15'0 0.0
2014-Sep-23 17:20N 34°42' E 135°15'0 0.0
2014-Sep-23 16:32N 34°42' E 135°15'0 0.0
2014-Sep-23 15:32N 34°42' E 135°15'0 0.0
2014-Sep-23 14:32N 34°42' E 135°15'0 0.0
2014-Sep-23 13:32N 34°42' E 135°15'0 0.0
2014-Sep-23 12:26N 34°42' E 135°15'0 0.0
2014-Sep-23 11:32N 34°42' E 135°15'0 0.0
2014-Sep-23 10:20N 34°42' E 135°15'0 0.1
2014-Sep-23 09:32N 34°42' E 135°15'0 0.0
2014-Sep-23 08:32N 34°42' E 135°15'0 0.0
2014-Sep-23 07:32N 34°42' E 135°15'0 0.0
2014-Sep-23 06:32N 34°42' E 135°15'0 0.0
2014-Sep-23 05:32N 34°42' E 135°15'0 0.0
2014-Sep-23 04:32N 34°42' E 135°15'0 0.0
2014-Sep-23 03:32N 34°42' E 135°15'0 0.0
2014-Sep-23 02:26N 34°42' E 135°15'0 0.1
2014-Sep-23 01:32N 34°42' E 135°15'0 0.1
2014-Sep-23 00:33N 34°42' E 135°15'5 4.8
2014-Sep-22 23:33N 34°37' E 135°16'1 0.5
2014-Sep-22 22:33N 34°37' E 135°15'0 0.0
2014-Sep-22 21:33N 34°37' E 135°15'0 0.0
2014-Sep-22 20:30N 34°37' E 135°15'0 0.1
2014-Sep-22 19:33N 34°37' E 135°15'0 0.0
2014-Sep-22 18:33N 34°37' E 135°15'0 0.0
2014-Sep-22 17:33N 34°37' E 135°15'0 0.0
2014-Sep-22 16:33N 34°37' E 135°15'0 0.0
2014-Sep-22 15:33N 34°37' E 135°15'0 0.0
2014-Sep-22 14:33N 34°37' E 135°15'0 0.0
2014-Sep-22 13:33N 34°37' E 135°15'0 0.0
2014-Sep-22 12:33N 34°37' E 135°15'0 0.0
2014-Sep-22 11:33N 34°37' E 135°15'5 5.0
2014-Sep-22 10:33N 34°35' E 135°10'1110.6
2014-Sep-22 09:33N 34°36' E 134°57'11612.7
2014-Sep-22 00:24N 33°59' E 132°44'9511.6
2014-Sep-21 16:11N 34°02' E 130°49'2213.2
2014-Sep-21 14:30N 33°57' E 130°23'1414.4
2014-Sep-21 13:32N 33°49' E 130°09'1414.4
2014-Sep-21 12:32N 33°41' E 129°55'39412.9
2014-Sep-20 06:08N 30°59' E 122°51'812.9
2014-Sep-20 05:33N 30°57' E 122°42'1413.7
2014-Sep-20 04:33N 31°00' E 122°27'1513.2
2014-Sep-20 03:26N 31°03' E 122°10'2312.3
2014-Sep-20 01:34N 31°15' E 121°47'9 8.4
2014-Sep-20 00:29N 31°21' E 121°39'0 0.0
2014-Sep-19 23:17N 31°21' E 121°39'0 0.0
2014-Sep-19 22:29N 31°21' E 121°39'0 0.0
2014-Sep-19 20:29N 31°21' E 121°39'0 0.0
2014-Sep-19 19:29N 31°21' E 121°39'0 0.0
2014-Sep-19 18:23N 31°21' E 121°39'0 0.0
2014-Sep-19 17:29N 31°21' E 121°39'0 0.0
2014-Sep-19 16:23N 31°21' E 121°39'0 0.0
2014-Sep-19 15:23N 31°21' E 121°39'0 0.0
2014-Sep-19 14:11N 31°21' E 121°39'0 0.1
2014-Sep-19 13:33N 31°21' E 121°39'8 7.7
2014-Sep-19 12:33N 31°16' E 121°46'3012.8
2014-Sep-19 10:16N 31°03' E 122°17'  
Track history (hours):
 
Tides and Currents Weather Stations Pressure Air Temp Water Temp Dewpoint Dewpoint Depression Visibility Wind Speed Wind Dir Waves Ship Positions

Pulau Tioman

Last reported at 2014-Sep-26 08:33 UTC. Time now 2014-Oct-01 16:22 UTC.
Position N 35°05' E 139°38'.

Length 120 m; draft 6.1 m.

Type: Cargo ship. MMSI: 356613000.

Date/timePositionNaut miles runAvg speedWind from/ knotsBaromVisibWave heightAir tempDewpointWater temp
2014-Sep-26 08:33N 35°05' E 139°38'1312.8
2014-Sep-26 07:34N 35°16' E 139°46'1110.9
2014-Sep-26 06:33N 35°26' E 139°42'1 1.2
2014-Sep-26 05:32N 35°27' E 139°41'0 0.0
2014-Sep-26 04:32N 35°27' E 139°41'0 0.0
2014-Sep-26 03:32N 35°27' E 139°41'0 0.0
2014-Sep-26 02:32N 35°27' E 139°41'0 0.0
2014-Sep-26 01:32N 35°27' E 139°41'0 0.0
2014-Sep-26 00:32N 35°27' E 139°41'0 0.0
2014-Sep-25 23:32N 35°27' E 139°41'0 0.0
2014-Sep-25 22:32N 35°27' E 139°41'0 0.0
2014-Sep-25 21:33N 35°27' E 139°41'2 2.0
2014-Sep-25 20:33N 35°25' E 139°42'0 0.1
2014-Sep-25 19:33N 35°25' E 139°42'0 0.0
2014-Sep-25 18:33N 35°25' E 139°42'0 0.0
2014-Sep-25 17:33N 35°25' E 139°42'0 0.0
2014-Sep-25 16:33N 35°25' E 139°42'0 0.0
2014-Sep-25 15:33N 35°25' E 139°42'0 0.0
2014-Sep-25 14:33N 35°25' E 139°42'0 0.1
2014-Sep-25 13:33N 35°25' E 139°42'0 0.0
2014-Sep-25 12:30N 35°25' E 139°42'0 0.0
2014-Sep-25 11:33N 35°25' E 139°42'0 0.1
2014-Sep-25 10:33N 35°25' E 139°42'9 8.9
2014-Sep-25 09:33N 35°17' E 139°46'1511.8
2014-Sep-25 08:20N 35°02' E 139°42'24211.6
2014-Sep-24 11:33N 33°60' E 134°58'1312.6
2014-Sep-24 10:32N 34°12' E 134°59'1111.4
2014-Sep-24 09:33N 34°23' E 135°02'1313.5
2014-Sep-24 08:33N 34°33' E 135°13'9 9.2
2014-Sep-24 07:33N 34°42' E 135°15'0 0.1
2014-Sep-24 06:15N 34°42' E 135°15'0 0.0
2014-Sep-24 05:32N 34°42' E 135°15'0 0.0
2014-Sep-24 04:32N 34°42' E 135°15'0 0.0
2014-Sep-24 03:32N 34°42' E 135°15'0 0.0
2014-Sep-24 02:32N 34°42' E 135°15'0 0.0
2014-Sep-24 01:32N 34°42' E 135°15'0 0.0
2014-Sep-24 00:32N 34°42' E 135°15'0 0.0
2014-Sep-23 23:32N 34°42' E 135°15'0 0.0
2014-Sep-23 22:26N 34°42' E 135°15'0 0.0
2014-Sep-23 21:20N 34°42' E 135°15'0 0.0
2014-Sep-23 20:32N 34°42' E 135°15'0 0.0
2014-Sep-23 19:26N 34°42' E 135°15'0 0.0
2014-Sep-23 18:33N 34°42' E 135°15'0 0.0
2014-Sep-23 17:20N 34°42' E 135°15'0 0.0
2014-Sep-23 16:32N 34°42' E 135°15'0 0.0
2014-Sep-23 15:32N 34°42' E 135°15'0 0.0
2014-Sep-23 14:32N 34°42' E 135°15'0 0.0
2014-Sep-23 13:32N 34°42' E 135°15'0 0.0
2014-Sep-23 12:26N 34°42' E 135°15'0 0.0
2014-Sep-23 11:32N 34°42' E 135°15'0 0.0
2014-Sep-23 10:20N 34°42' E 135°15'0 0.1
2014-Sep-23 09:32N 34°42' E 135°15'0 0.0
2014-Sep-23 08:32N 34°42' E 135°15'0 0.0
2014-Sep-23 07:32N 34°42' E 135°15'0 0.0
2014-Sep-23 06:32N 34°42' E 135°15'0 0.0
2014-Sep-23 05:32N 34°42' E 135°15'0 0.0
2014-Sep-23 04:32N 34°42' E 135°15'0 0.0
2014-Sep-23 03:32N 34°42' E 135°15'0 0.0
2014-Sep-23 02:26N 34°42' E 135°15'0 0.1
2014-Sep-23 01:32N 34°42' E 135°15'0 0.1
2014-Sep-23 00:33N 34°42' E 135°15'5 4.8
2014-Sep-22 23:33N 34°37' E 135°16'1 0.5
2014-Sep-22 22:33N 34°37' E 135°15'0 0.0
2014-Sep-22 21:33N 34°37' E 135°15'0 0.0
2014-Sep-22 20:30N 34°37' E 135°15'0 0.1
2014-Sep-22 19:33N 34°37' E 135°15'0 0.0
2014-Sep-22 18:33N 34°37' E 135°15'0 0.0
2014-Sep-22 17:33N 34°37' E 135°15'0 0.0
2014-Sep-22 16:33N 34°37' E 135°15'0 0.0
2014-Sep-22 15:33N 34°37' E 135°15'0 0.0
2014-Sep-22 14:33N 34°37' E 135°15'0 0.0
2014-Sep-22 13:33N 34°37' E 135°15'0 0.0
2014-Sep-22 12:33N 34°37' E 135°15'0 0.0
2014-Sep-22 11:33N 34°37' E 135°15'5 5.0
2014-Sep-22 10:33N 34°35' E 135°10'1110.6
2014-Sep-22 09:33N 34°36' E 134°57'11612.7
2014-Sep-22 00:24N 33°59' E 132°44'9511.6
2014-Sep-21 16:11N 34°02' E 130°49'2213.2
2014-Sep-21 14:30N 33°57' E 130°23'1414.4
2014-Sep-21 13:32N 33°49' E 130°09'1414.4
2014-Sep-21 12:32N 33°41' E 129°55'39412.9
2014-Sep-20 06:08N 30°59' E 122°51'812.9
2014-Sep-20 05:33N 30°57' E 122°42'1413.7
2014-Sep-20 04:33N 31°00' E 122°27'1513.2
2014-Sep-20 03:26N 31°03' E 122°10'2312.3
2014-Sep-20 01:34N 31°15' E 121°47'9 8.4
2014-Sep-20 00:29N 31°21' E 121°39'0 0.0
2014-Sep-19 23:17N 31°21' E 121°39'0 0.0
2014-Sep-19 22:29N 31°21' E 121°39'0 0.0
2014-Sep-19 20:29N 31°21' E 121°39'0 0.0
2014-Sep-19 19:29N 31°21' E 121°39'0 0.0
2014-Sep-19 18:23N 31°21' E 121°39'0 0.0
2014-Sep-19 17:29N 31°21' E 121°39'0 0.0
2014-Sep-19 16:23N 31°21' E 121°39'0 0.0
2014-Sep-19 15:23N 31°21' E 121°39'0 0.0
2014-Sep-19 14:11N 31°21' E 121°39'0 0.1
2014-Sep-19 13:33N 31°21' E 121°39'8 7.7
2014-Sep-19 12:33N 31°16' E 121°46'3012.8
2014-Sep-19 10:16N 31°03' E 122°17'  

Dump ship's entire track history